Time;durP1;ratioP1;P1;durP2;ratioP2;P2;SDS_P1;SDS_P2;PMS_P1;PMS_P2;Temp;Humidity;BMP_temperature;BMP_pressure;BME280_temperature;BME280_humidity;BME280_pressure;Samples;Min_cycle;Max_cycle;Signal;HPM_P1;HPM_P2
2022/02/12 00:00:08;;;;;;;25.95;23.90;;;0.90;92.70;;;;;;5091760;28;20305;-72
2022/02/12 00:02:35;;;;;;;27.92;25.70;;;0.80;93.10;;;;;;5092091;28;20328;-72
2022/02/12 00:05:02;;;;;;;27.83;25.75;;;0.80;93.10;;;;;;5091794;28;20229;-72
2022/02/12 00:07:29;;;;;;;28.42;26.23;;;0.80;93.20;;;;;;5092001;28;20194;-72
2022/02/12 00:09:56;;;;;;;28.95;26.73;;;0.90;93.20;;;;;;5091686;28;20202;-72
2022/02/12 00:12:26;;;;;;;30.30;27.65;;;0.90;92.80;;;;;;5091892;28;20196;-72
2022/02/12 00:14:56;;;;;;;26.75;24.77;;;0.80;92.80;;;;;;5091890;28;20288;-72
2022/02/12 00:17:23;;;;;;;29.05;26.38;;;0.80;93.00;;;;;;5091757;28;20229;-71
2022/02/12 00:19:50;;;;;;;27.98;25.85;;;0.90;92.80;;;;;;5091548;28;20372;-72
2022/02/12 00:22:17;;;;;;;27.50;25.17;;;0.90;92.40;;;;;;5091893;28;20223;-72
2022/02/12 00:24:44;;;;;;;28.30;26.02;;;0.90;92.10;;;;;;5091731;28;20205;-72
2022/02/12 00:27:10;;;;;;;27.17;24.98;;;1.00;91.90;;;;;;5094491;28;20198;-72
2022/02/12 00:29:37;;;;;;;27.08;24.77;;;0.90;91.80;;;;;;5095278;28;20296;-72
2022/02/12 00:32:06;;;;;;;29.13;26.30;;;0.80;92.40;;;;;;5095453;28;20229;-72
2022/02/12 00:34:33;;;;;;;27.15;24.90;;;0.70;92.70;;;;;;5095591;28;20205;-72
2022/02/12 00:37:00;;;;;;;27.65;25.38;;;0.70;93.90;;;;;;5095207;28;20627;-71
2022/02/12 00:39:27;;;;;;;28.58;26.13;;;0.70;93.90;;;;;;5095099;28;20287;-72
2022/02/12 00:41:54;;;;;;;27.60;25.40;;;0.80;93.80;;;;;;5095074;28;20254;-72
2022/02/12 00:44:23;;;;;;;30.40;28.00;;;0.80;93.10;;;;;;5095115;28;20676;-71
2022/02/12 00:46:50;;;;;;;28.90;26.40;;;0.70;93.30;;;;;;5095143;28;20194;-72
2022/02/12 00:49:18;;;;;;;1999.90;435.02;;;0.70;93.30;;;;;;5094938;28;20196;-71
2022/02/12 00:51:45;;;;;;;956.15;143.75;;;0.70;95.00;;;;;;5095037;28;20218;-71
2022/02/12 00:54:12;;;;;;;1999.90;706.28;;;0.70;95.80;;;;;;5094971;28;20292;-72
2022/02/12 00:56:39;;;;;;;30.73;28.02;;;0.70;98.30;;;;;;5094693;28;20696;-71
2022/02/12 00:59:06;;;;;;;32.05;29.13;;;0.70;98.00;;;;;;5094880;28;20202;-72
2022/02/12 01:01:34;;;;;;;33.17;29.95;;;0.80;96.90;;;;;;5094768;28;20216;-71
2022/02/12 01:04:01;;;;;;;33.80;30.88;;;0.80;95.90;;;;;;5094735;28;20210;-72
2022/02/12 01:06:30;;;;;;;36.15;32.85;;;0.80;95.60;;;;;;5094657;28;20214;-72
2022/02/12 01:08:58;;;;;;;36.97;33.75;;;0.80;95.30;;;;;;5094711;28;20210;-72
2022/02/12 01:11:24;;;;;;;38.47;34.88;;;0.90;94.90;;;;;;5094410;28;20584;-72
2022/02/12 01:13:51;;;;;;;39.40;35.60;;;0.90;94.90;;;;;;5094759;28;20532;-72
2022/02/12 01:16:19;;;;;;;40.50;36.08;;;0.90;94.80;;;;;;5094521;28;20295;-72
2022/02/12 01:18:46;;;;;;;40.70;36.30;;;0.80;95.10;;;;;;5094608;28;20612;-72
2022/02/12 01:21:13;;;;;;;39.67;36.13;;;0.80;95.30;;;;;;5094048;28;20232;-72
2022/02/12 01:23:41;;;;;;;40.80;36.83;;;0.90;95.20;;;;;;5094430;28;20198;-72
2022/02/12 01:26:08;;;;;;;39.72;35.97;;;0.80;95.90;;;;;;5094101;28;20654;-72
2022/02/12 01:28:35;;;;;;;1280.18;197.20;;;0.80;96.40;;;;;;5094121;28;20564;-72
2022/02/12 01:31:02;;;;;;;39.83;35.70;;;0.80;98.30;;;;;;5094062;28;20313;-72
2022/02/12 01:33:29;;;;;;;42.22;36.85;;;0.90;98.10;;;;;;5094383;28;20198;-72
2022/02/12 01:35:56;;;;;;;39.28;35.22;;;1.00;96.70;;;;;;5094030;28;20202;-72
2022/02/12 01:38:23;;;;;;;40.10;36.10;;;0.90;96.40;;;;;;5093774;28;20634;-72
2022/02/12 01:40:51;;;;;;;39.75;35.75;;;0.90;96.20;;;;;;5093868;28;20214;-72
2022/02/12 01:43:18;;;;;;;39.42;35.63;;;0.90;96.70;;;;;;5094086;28;20356;-72
2022/02/12 01:45:45;;;;;;;39.95;35.65;;;0.90;96.80;;;;;;5093975;28;20280;-72
2022/02/12 01:48:13;;;;;;;39.10;35.25;;;0.90;96.80;;;;;;5093883;28;20198;-72
2022/02/12 01:50:40;;;;;;;40.78;36.97;;;1.00;96.00;;;;;;5093632;28;20275;-72
2022/02/12 01:53:07;;;;;;;41.70;37.50;;;1.00;95.40;;;;;;5094028;28;20198;-72
2022/02/12 01:55:34;;;;;;;40.10;36.30;;;1.00;95.30;;;;;;5093815;28;20226;-72
2022/02/12 01:58:06;;;;;;;45.92;36.58;;;0.90;95.10;;;;;;5093718;28;20232;-72
2022/02/12 02:00:34;;;;;;;556.22;109.40;;;0.80;95.70;;;;;;5093627;28;20214;-72
2022/02/12 02:03:01;;;;;;;195.57;59.67;;;0.70;97.10;;;;;;5093649;28;20202;-72
2022/02/12 02:05:29;;;;;;;38.75;35.08;;;0.60;99.00;;;;;;5093506;28;20206;-72
2022/02/12 02:07:56;;;;;;;35.92;32.83;;;0.70;98.00;;;;;;5093518;28;20273;-72
2022/02/12 02:10:23;;;;;;;37.85;34.15;;;0.60;97.50;;;;;;5093275;28;20310;-72
2022/02/12 02:12:50;;;;;;;36.50;33.40;;;0.50;97.20;;;;;;5093510;28;20690;-72
2022/02/12 02:15:18;;;;;;;34.45;31.40;;;0.50;97.10;;;;;;5093437;28;20692;-72
2022/02/12 02:17:45;;;;;;;35.15;32.25;;;0.40;96.90;;;;;;5093201;28;20224;-72
2022/02/12 02:20:12;;;;;;;35.40;32.45;;;0.40;96.90;;;;;;5092880;28;20294;-71
2022/02/12 02:22:50;;;;;;;37.08;33.88;;;0.40;97.10;;;;;;5093498;28;20201;-72
2022/02/12 02:25:18;;;;;;;34.92;31.90;;;0.40;96.70;;;;;;5093261;28;20225;-72
2022/02/12 02:27:45;;;;;;;35.42;32.42;;;0.40;96.50;;;;;;5093392;28;20222;-72
2022/02/12 02:30:14;;;;;;;34.97;32.17;;;0.30;96.10;;;;;;5093075;28;20282;-72
2022/02/12 02:32:42;;;;;;;37.38;33.83;;;0.30;96.00;;;;;;5093182;28;20205;-72
2022/02/12 02:35:11;;;;;;;36.35;33.25;;;0.30;96.00;;;;;;5093141;28;20194;-72
2022/02/12 02:37:38;;;;;;;37.20;34.13;;;0.30;95.90;;;;;;5093035;28;20304;-72
2022/02/12 02:40:16;;;;;;;36.42;32.92;;;0.20;95.90;;;;;;5092987;28;20202;-72
2022/02/12 02:42:43;;;;;;;36.35;33.25;;;0.20;95.90;;;;;;5093088;28;20202;-72
2022/02/12 02:45:12;;;;;;;35.45;32.10;;;0.20;95.80;;;;;;5093049;28;20202;-72
2022/02/12 02:47:42;;;;;;;34.50;31.67;;;0.20;95.80;;;;;;5092929;28;20236;-72
2022/02/12 02:58:24;;;;;;;1999.90;959.60;;;0.10;95.20;;;;;;5092772;28;20277;-72
2022/02/12 03:00:51;;;;;;;34.22;31.38;;;0.10;97.50;;;;;;5092602;28;20301;-72
2022/02/12 03:03:17;;;;;;;35.50;32.30;;;0.10;99.00;;;;;;5093042;28;20663;-72
2022/02/12 03:05:44;;;;;;;33.17;30.23;;;0.10;98.00;;;;;;5092606;28;20301;-72
2022/02/12 03:08:12;;;;;;;34.92;31.70;;;0.10;97.20;;;;;;5092714;28;20201;-72
2022/02/12 03:10:41;;;;;;;31.67;29.13;;;0.10;96.90;;;;;;5092461;28;20249;-72
2022/02/12 03:13:07;;;;;;;35.25;32.20;;;0.10;96.30;;;;;;5092759;28;20563;-72
2022/02/12 03:15:38;;;;;;;33.63;30.58;;;0.10;95.90;;;;;;5092639;28;20205;-72
2022/02/12 03:18:05;;;;;;;34.28;31.20;;;0.00;95.70;;;;;;5092430;28;20226;-72
2022/02/12 03:20:32;;;;;;;34.00;31.08;;;0.10;95.30;;;;;;5092004;28;20256;-72
2022/02/12 03:22:59;;;;;;;34.88;32.08;;;0.00;94.80;;;;;;5092590;28;20212;-72
2022/02/12 03:25:26;;;;;;;34.35;31.50;;;0.00;95.00;;;;;;5092238;28;20283;-71
2022/02/12 03:27:57;;;;;;;33.88;30.88;;;0.00;94.70;;;;;;5092404;28;20320;-72
2022/02/12 03:30:24;;;;;;;34.83;32.03;;;-0.10;94.80;;;;;;5092222;28;20213;-72
2022/02/12 03:32:51;;;;;;;34.97;31.67;;;-0.10;94.90;;;;;;5092457;28;20725;-71
2022/02/12 03:35:18;;;;;;;36.30;33.08;;;-0.20;95.00;;;;;;5092397;28;20618;-72
2022/02/12 03:37:46;;;;;;;35.92;32.38;;;-0.20;95.10;;;;;;5092488;28;20215;-72
2022/02/12 03:40:13;;;;;;;33.15;30.30;;;-0.20;95.20;;;;;;5092082;28;20228;-72
2022/02/12 03:42:40;;;;;;;35.22;32.30;;;-0.30;95.10;;;;;;5092281;28;20199;-72
2022/02/12 03:45:09;;;;;;;33.78;30.88;;;-0.40;95.10;;;;;;5092234;28;20196;-72
2022/02/12 03:47:37;;;;;;;35.30;32.35;;;-0.50;95.50;;;;;;5092172;28;20650;-71
2022/02/12 03:50:05;;;;;;;32.53;29.75;;;-0.50;95.20;;;;;;5092067;28;20551;-72
2022/02/12 03:52:32;;;;;;;35.10;32.03;;;-0.30;95.10;;;;;;5092234;28;20199;-72
2022/02/12 03:54:59;;;;;;;34.45;31.35;;;-0.20;94.40;;;;;;5092210;28;20196;-72
2022/02/12 03:57:26;;;;;;;34.25;31.27;;;-0.20;94.20;;;;;;5092149;28;20597;-72
2022/02/12 03:59:53;;;;;;;33.95;31.08;;;-0.30;94.60;;;;;;5092550;28;20292;-72
2022/02/12 04:02:21;;;;;;;33.63;30.83;;;-0.30;94.40;;;;;;5096059;28;20213;-72
2022/02/12 04:04:48;;;;;;;33.55;30.85;;;-0.40;94.90;;;;;;5095996;28;20205;-72
2022/02/12 04:07:15;;;;;;;34.55;31.65;;;-0.40;95.30;;;;;;5096061;28;20204;-71
2022/02/12 04:09:42;;;;;;;34.67;31.70;;;-0.40;95.00;;;;;;5095847;28;20201;-72
2022/02/12 04:12:09;;;;;;;31.50;29.10;;;-0.40;94.80;;;;;;5095963;28;20304;-72
2022/02/12 04:14:36;;;;;;;34.88;31.88;;;-0.40;94.70;;;;;;5095908;28;20296;-72
2022/02/12 04:17:04;;;;;;;34.00;31.30;;;-0.40;94.60;;;;;;5095717;28;20693;-72
2022/02/12 04:19:32;;;;;;;32.97;30.40;;;-0.50;94.30;;;;;;5095504;28;20677;-72
2022/02/12 04:21:59;;;;;;;32.22;29.70;;;-0.60;94.60;;;;;;5095792;28;20218;-72
2022/02/12 04:24:26;;;;;;;32.88;30.10;;;-0.50;94.20;;;;;;5095739;28;20197;-72
2022/02/12 04:26:53;;;;;;;34.20;30.90;;;-0.60;93.90;;;;;;5095549;28;20227;-72
2022/02/12 04:29:20;;;;;;;33.72;31.00;;;-0.60;94.20;;;;;;5095357;28;20204;-72
2022/02/12 04:31:47;;;;;;;33.10;30.55;;;-0.50;94.10;;;;;;5095599;28;20253;-72
2022/02/12 04:34:13;;;;;;;33.15;30.48;;;-0.60;93.90;;;;;;5095537;28;20198;-71
2022/02/12 04:36:42;;;;;;;33.42;30.33;;;-0.60;94.20;;;;;;5095411;28;20205;-71
2022/02/12 04:39:09;;;;;;;33.35;30.60;;;-0.70;94.40;;;;;;5095241;28;20291;-72
2022/02/12 04:41:35;;;;;;;32.78;30.15;;;-0.70;94.20;;;;;;5095389;28;20214;-71
2022/02/12 04:44:02;;;;;;;32.88;30.02;;;-0.70;94.20;;;;;;5095375;28;20623;-72
2022/02/12 04:46:29;;;;;;;33.55;30.60;;;-0.80;94.40;;;;;;5095362;28;20200;-72
2022/02/12 04:48:56;;;;;;;71.95;33.92;;;-0.80;94.40;;;;;;5095400;28;20275;-71
2022/02/12 04:51:23;;;;;;;32.72;29.80;;;-0.70;95.20;;;;;;5095226;28;20225;-72
2022/02/12 04:53:52;;;;;;;31.67;28.73;;;-0.70;94.90;;;;;;5095079;28;20667;-72
2022/02/12 04:56:19;;;;;;;32.45;29.80;;;-0.60;94.50;;;;;;5095034;28;20565;-72
2022/02/12 04:58:46;;;;;;;31.88;29.38;;;-0.70;94.20;;;;;;5094962;28;20311;-72
2022/02/12 05:01:20;;;;;;;1235.93;187.68;;;-0.70;94.20;;;;;;5094788;28;20222;-71
2022/02/12 05:03:49;;;;;;;34.47;31.17;;;-0.70;94.70;;;;;;5095006;28;20658;-71
2022/02/12 05:06:16;;;;;;;33.30;30.65;;;-0.60;95.40;;;;;;5094706;28;20206;-71
2022/02/12 05:08:44;;;;;;;33.10;29.75;;;-0.60;94.80;;;;;;5094741;28;20200;-71
2022/02/12 05:11:13;;;;;;;33.35;30.30;;;-0.60;94.40;;;;;;5094390;28;20235;-71
2022/02/12 05:13:40;;;;;;;32.67;29.77;;;-0.60;94.40;;;;;;5094374;28;20285;-72
2022/02/12 05:16:07;;;;;;;32.78;30.13;;;-0.60;94.30;;;;;;5094807;28;20194;-72
2022/02/12 05:18:34;;;;;;;32.85;30.15;;;-0.50;94.30;;;;;;5094553;28;20221;-72
2022/02/12 05:21:02;;;;;;;34.15;31.15;;;-0.50;94.10;;;;;;5094226;28;20953;-72
2022/02/12 05:23:29;;;;;;;32.88;29.92;;;-0.40;94.00;;;;;;5094587;28;20292;-72
2022/02/12 05:25:55;;;;;;;32.85;29.95;;;-0.30;94.00;;;;;;5094303;28;20198;-71
2022/02/12 05:28:24;;;;;;;34.28;31.17;;;-0.30;93.80;;;;;;5094444;28;20252;-71
2022/02/12 05:30:51;;;;;;;33.30;30.65;;;-0.20;93.60;;;;;;5094280;28;20325;-71
2022/02/12 05:33:18;;;;;;;34.42;31.52;;;-0.20;93.70;;;;;;5094349;28;20289;-72
2022/02/12 05:35:45;;;;;;;375.45;75.55;;;-0.10;93.60;;;;;;5094157;28;20194;-71
2022/02/12 05:38:13;;;;;;;48.85;32.65;;;0.00;93.40;;;;;;5094136;28;20227;-71
2022/02/12 05:40:40;;;;;;;50.05;33.30;;;0.00;93.70;;;;;;5094014;28;20222;-72
2022/02/12 05:43:07;;;;;;;33.13;30.48;;;0.00;96.60;;;;;;5094370;28;20656;-72
2022/02/12 05:45:35;;;;;;;34.97;31.67;;;0.10;95.70;;;;;;5094100;28;20201;-72
2022/02/12 05:48:02;;;;;;;34.92;31.80;;;0.10;94.90;;;;;;5094108;28;20198;-72
2022/02/12 05:50:29;;;;;;;35.40;32.17;;;0.10;94.70;;;;;;5093656;28;20271;-71
2022/02/12 05:52:57;;;;;;;35.20;32.22;;;0.10;94.20;;;;;;5094005;28;20263;-71
2022/02/12 05:55:25;;;;;;;38.10;34.50;;;0.00;94.20;;;;;;5093930;28;20204;-71
2022/02/12 05:57:58;;;;;;;37.25;33.42;;;0.10;94.30;;;;;;5093841;28;20370;-71
2022/02/12 06:00:26;;;;;;;36.42;33.42;;;0.20;93.90;;;;;;5093647;28;20217;-72
2022/02/12 06:02:54;;;;;;;35.53;31.95;;;0.30;93.50;;;;;;5093782;28;20662;-71
2022/02/12 06:05:22;;;;;;;38.60;34.80;;;0.30;93.70;;;;;;5093527;28;20212;-71
2022/02/12 06:07:49;;;;;;;36.20;33.15;;;0.30;93.20;;;;;;5093695;28;20200;-72
2022/02/12 06:10:16;;;;;;;37.13;33.35;;;0.20;93.10;;;;;;5093631;28;20303;-72
2022/02/12 06:12:43;;;;;;;42.97;36.70;;;0.10;93.70;;;;;;5093638;28;20200;-71
2022/02/12 06:15:10;;;;;;;1146.63;188.73;;;0.10;94.10;;;;;;5093498;28;20200;-72
2022/02/12 06:17:37;;;;;;;155.23;47.58;;;0.10;94.10;;;;;;5093323;28;20221;-71
2022/02/12 06:20:07;;;;;;;1999.90;856.80;;;0.10;98.40;;;;;;5093033;28;20743;-72
2022/02/12 06:22:34;;;;;;;39.30;35.60;;;0.10;99.00;;;;;;5093530;28;20667;-71
2022/02/12 06:25:01;;;;;;;39.78;35.78;;;0.20;99.90;;;;;;5092194;28;20208;-71
2022/02/12 06:27:28;;;;;;;40.15;36.17;;;0.30;98.80;;;;;;5093424;28;20289;-71
2022/02/12 06:29:55;;;;;;;37.83;34.28;;;0.20;97.50;;;;;;5092949;28;20201;-71
2022/02/12 06:32:23;;;;;;;100.57;39.10;;;0.20;96.90;;;;;;5093290;28;20205;-71
2022/02/12 06:34:55;;;;;;;1741.38;299.65;;;0.10;96.60;;;;;;5093233;28;20292;-71
2022/02/12 06:37:23;;;;;;;36.95;32.88;;;0.20;97.10;;;;;;5093134;28;20724;-71
2022/02/12 06:39:50;;;;;;;37.70;34.17;;;0.20;98.90;;;;;;5092885;28;20199;-71
2022/02/12 06:42:17;;;;;;;39.58;35.63;;;0.30;97.70;;;;;;5092962;28;20694;-71
2022/02/12 06:44:45;;;;;;;38.90;35.33;;;0.20;96.80;;;;;;5093042;28;20289;-71
2022/02/12 06:47:12;;;;;;;39.03;34.85;;;0.10;96.40;;;;;;5093061;28;20205;-71
2022/02/12 06:49:39;;;;;;;37.10;33.90;;;0.20;96.40;;;;;;5092819;28;20200;-71
2022/02/12 06:52:07;;;;;;;38.60;34.90;;;0.20;95.90;;;;;;5092968;28;20309;-71
2022/02/12 06:54:35;;;;;;;1999.90;609.95;;;0.30;95.80;;;;;;5092963;28;20200;-71
2022/02/12 06:57:02;;;;;;;580.55;100.68;;;0.40;96.20;;;;;;5092752;28;20678;-72
2022/02/12 06:59:29;;;;;;;39.25;34.97;;;0.40;98.40;;;;;;5092561;28;20651;-71
2022/02/12 07:01:56;;;;;;;38.38;34.67;;;0.50;97.20;;;;;;5092653;28;20305;-71
2022/02/12 07:04:23;;;;;;;38.38;34.35;;;0.50;95.60;;;;;;5092967;28;20563;-71
2022/02/12 07:06:50;;;;;;;37.83;34.53;;;0.60;94.60;;;;;;5092653;28;20211;-72
2022/02/12 07:09:17;;;;;;;37.75;34.25;;;0.40;93.20;;;;;;5092552;28;20199;-71
2022/02/12 07:11:45;;;;;;;37.03;33.83;;;0.40;93.60;;;;;;5092602;28;20299;-71
2022/02/12 07:14:12;;;;;;;35.88;32.67;;;0.40;93.60;;;;;;5092584;28;20745;-71
2022/02/12 07:16:39;;;;;;;37.00;33.53;;;0.50;94.20;;;;;;5092547;28;20651;-71
2022/02/12 07:19:06;;;;;;;35.53;32.15;;;0.50;93.20;;;;;;5092562;28;20307;-71
2022/02/12 07:21:34;;;;;;;36.97;33.53;;;0.50;93.10;;;;;;5092100;28;20306;-71
2022/02/12 07:24:01;;;;;;;36.70;33.33;;;0.50;92.90;;;;;;5092446;28;20675;-70
2022/02/12 07:26:28;;;;;;;38.42;34.92;;;0.50;92.20;;;;;;5092276;28;20278;-71
2022/02/12 07:28:57;;;;;;;37.70;34.33;;;0.50;92.40;;;;;;5092381;28;20279;-71
2022/02/12 07:31:23;;;;;;;37.20;33.60;;;0.60;92.50;;;;;;5092123;28;20218;-70
2022/02/12 07:33:50;;;;;;;36.92;33.75;;;0.60;91.10;;;;;;5092393;28;20227;-71
2022/02/12 07:36:17;;;;;;;38.17;34.47;;;0.60;91.50;;;;;;5095520;28;20202;-70
2022/02/12 07:38:44;;;;;;;34.88;31.88;;;0.70;91.30;;;;;;5096540;28;20224;-71
2022/02/12 07:41:16;;;;;;;37.28;33.55;;;0.80;90.90;;;;;;5096239;28;20295;-71
2022/02/12 07:43:43;;;;;;;39.50;35.92;;;0.80;90.60;;;;;;5096626;28;20202;-71
2022/02/12 07:46:11;;;;;;;41.97;37.58;;;0.80;90.50;;;;;;5096468;28;20201;-71
2022/02/12 07:48:38;;;;;;;37.30;33.83;;;0.70;90.70;;;;;;5096346;28;20204;-71
2022/02/12 07:51:07;;;;;;;37.35;33.50;;;0.70;91.90;;;;;;5096116;28;20222;-71
2022/02/12 07:53:35;;;;;;;36.13;32.55;;;0.80;91.40;;;;;;5096321;28;20656;-71
2022/02/12 07:56:02;;;;;;;38.78;35.13;;;1.00;91.00;;;;;;5096330;28;20202;-71
2022/02/12 07:58:29;;;;;;;39.22;35.42;;;1.10;91.80;;;;;;5096180;28;20759;-71
2022/02/12 08:00:56;;;;;;;34.72;31.42;;;1.10;90.60;;;;;;5096057;28;20643;-71
2022/02/12 08:03:24;;;;;;;40.90;36.88;;;1.30;90.60;;;;;;5096298;28;20201;-71
2022/02/12 08:05:51;;;;;;;38.35;34.85;;;1.50;89.20;;;;;;5096063;28;20212;-71
2022/02/12 08:08:18;;;;;;;40.70;35.90;;;1.50;88.10;;;;;;5095942;28;20652;-70
2022/02/12 08:13:31;;;;;;;1999.90;833.55;;;1.30;90.80;;;;;;5078387;28;20326;-71
2022/02/12 08:15:58;;;;;;;39.42;35.35;;;1.30;94.00;;;;;;5095759;28;20297;-71
2022/02/12 08:18:26;;;;;;;39.75;35.53;;;1.40;93.00;;;;;;5095680;28;20261;-71
2022/02/12 08:20:53;;;;;;;36.78;33.45;;;1.30;91.20;;;;;;5095204;28;20227;-71
2022/02/12 08:23:20;;;;;;;37.25;33.72;;;1.30;91.20;;;;;;5095845;28;20539;-71
2022/02/12 08:25:47;;;;;;;38.22;34.63;;;1.50;90.80;;;;;;5095697;28;20199;-71
2022/02/12 08:28:14;;;;;;;35.92;32.67;;;1.50;88.40;;;;;;5095697;28;20197;-72
2022/02/12 08:30:41;;;;;;;35.25;31.70;;;1.50;89.80;;;;;;5095323;28;20230;-72
2022/02/12 08:33:08;;;;;;;37.67;34.42;;;1.30;88.60;;;;;;5095609;28;20194;-71
2022/02/12 08:35:36;;;;;;;38.85;35.20;;;1.10;89.20;;;;;;5095560;28;20229;-71
2022/02/12 08:38:03;;;;;;;39.70;36.10;;;1.10;89.50;;;;;;5095427;28;20196;-72
2022/02/12 08:40:30;;;;;;;37.97;34.60;;;1.20;89.50;;;;;;5095286;28;20323;-71
2022/02/12 08:42:57;;;;;;;37.85;34.45;;;1.30;89.50;;;;;;5095446;28;20198;-72
2022/02/12 08:45:25;;;;;;;40.05;36.35;;;1.20;89.20;;;;;;5095347;28;20234;-72
2022/02/12 08:47:52;;;;;;;35.83;32.47;;;1.20;89.60;;;;;;5094127;28;20202;-71
2022/02/12 08:50:19;;;;;;;36.17;32.83;;;1.30;89.50;;;;;;5095035;28;20751;-72
2022/02/12 08:52:47;;;;;;;35.30;32.30;;;1.40;89.20;;;;;;5095202;28;20202;-72
2022/02/12 08:55:14;;;;;;;36.90;33.22;;;1.40;88.90;;;;;;5095105;28;20197;-71
2022/02/12 08:57:41;;;;;;;38.17;34.72;;;1.40;89.20;;;;;;5094940;28;20738;-71
2022/02/12 09:00:10;;;;;;;36.20;32.90;;;1.50;89.30;;;;;;5094678;28;20252;-72
2022/02/12 09:02:37;;;;;;;37.22;33.85;;;1.50;89.10;;;;;;5094950;28;20204;-72
2022/02/12 09:05:05;;;;;;;39.80;36.08;;;1.60;88.70;;;;;;5094823;28;20208;-72
2022/02/12 09:07:32;;;;;;;35.10;32.08;;;1.50;88.70;;;;;;5094912;28;20200;-72
2022/02/12 09:10:01;;;;;;;36.58;33.28;;;1.60;88.90;;;;;;5094713;28;20203;-71
2022/02/12 09:12:28;;;;;;;38.78;35.33;;;1.60;88.80;;;;;;5094848;28;20201;-71
2022/02/12 09:14:55;;;;;;;38.75;34.85;;;1.70;88.50;;;;;;5094713;28;20206;-72
2022/02/12 09:17:22;;;;;;;37.72;33.35;;;1.90;88.10;;;;;;5094705;28;20196;-71
2022/02/12 09:19:49;;;;;;;36.72;33.63;;;2.10;88.00;;;;;;5094310;28;20365;-71
2022/02/12 09:22:16;;;;;;;34.70;31.73;;;2.20;87.40;;;;;;5094705;28;20263;-72
2022/02/12 09:24:43;;;;;;;36.30;32.70;;;2.40;87.00;;;;;;5094491;28;20649;-71
2022/02/12 09:27:13;;;;;;;34.03;31.13;;;2.40;87.10;;;;;;5094365;28;20200;-72
2022/02/12 09:29:40;;;;;;;36.10;32.92;;;2.40;86.70;;;;;;5094246;28;20203;-71
2022/02/12 09:32:07;;;;;;;35.97;32.65;;;2.50;86.70;;;;;;5094413;28;20667;-72
2022/02/12 09:34:34;;;;;;;33.90;31.20;;;2.60;85.90;;;;;;5094262;28;20203;-71
2022/02/12 09:37:01;;;;;;;35.05;31.50;;;2.70;85.90;;;;;;5094270;28;20291;-72
2022/02/12 09:39:28;;;;;;;34.72;31.75;;;2.70;85.60;;;;;;5094005;28;20228;-72
2022/02/12 09:41:56;;;;;;;34.40;31.25;;;2.80;85.80;;;;;;5094052;28;20617;-72
2022/02/12 09:44:24;;;;;;;33.58;30.73;;;3.00;85.10;;;;;;5094364;28;20202;-72
2022/02/12 09:47:17;;;;;;;35.53;32.20;;;3.00;84.00;;;;;;5094040;28;20288;-72
2022/02/12 09:49:45;;;;;;;32.05;29.13;;;3.20;84.00;;;;;;5093950;28;20297;-72
2022/02/12 09:52:16;;;;;;;35.47;32.03;;;3.40;83.30;;;;;;5094019;28;20271;-72
2022/02/12 09:54:44;;;;;;;33.58;30.27;;;3.50;83.00;;;;;;5094083;28;20289;-72
2022/02/12 09:57:11;;;;;;;33.80;30.77;;;3.60;82.50;;;;;;5093941;28;20254;-72
2022/02/12 09:59:40;;;;;;;33.95;31.05;;;3.80;81.60;;;;;;5093382;28;20353;-72
2022/02/12 10:02:07;;;;;;;32.05;29.02;;;3.90;80.90;;;;;;5093919;28;20221;-72
2022/02/12 10:04:34;;;;;;;32.30;29.80;;;3.80;80.80;;;;;;5093925;28;20201;-72
2022/02/12 10:07:00;;;;;;;32.13;29.13;;;3.90;79.80;;;;;;5093598;28;20304;-72
2022/02/12 10:09:27;;;;;;;30.63;28.15;;;3.90;79.70;;;;;;5093712;28;20213;-72
2022/02/12 10:11:55;;;;;;;32.13;29.15;;;3.90;79.10;;;;;;5093634;28;20300;-72
2022/02/12 10:14:24;;;;;;;30.05;27.75;;;4.00;79.20;;;;;;5093603;28;20197;-72
2022/02/12 10:16:58;;;;;;;29.13;26.90;;;4.10;78.70;;;;;;5093622;28;20192;-72
2022/02/12 10:19:33;;;;;;;31.27;28.77;;;4.20;77.80;;;;;;5093353;28;20266;-72
2022/02/12 10:22:15;;;;;;;30.42;28.10;;;4.40;77.00;;;;;;5093323;28;20225;-72
2022/02/12 10:25:03;;;;;;;27.40;25.38;;;4.40;75.70;;;;;;5093409;28;20204;-72
2022/02/12 10:27:31;;;;;;;28.27;26.17;;;4.50;75.30;;;;;;5093514;28;20213;-72
2022/02/12 10:30:01;;;;;;;29.88;26.83;;;4.50;75.50;;;;;;5093078;28;20194;-72
2022/02/12 10:32:30;;;;;;;28.27;26.30;;;4.70;75.30;;;;;;5093498;28;20194;-72
2022/02/12 10:34:57;;;;;;;27.80;25.70;;;4.70;74.40;;;;;;5093273;28;20243;-72
2022/02/12 10:37:25;;;;;;;29.60;27.30;;;4.60;73.80;;;;;;5093202;28;20307;-72
2022/02/12 10:39:55;;;;;;;27.23;25.40;;;4.80;74.20;;;;;;5092961;28;20815;-72
2022/02/12 10:42:23;;;;;;;29.30;26.85;;;4.90;73.00;;;;;;5093215;28;20618;-72
2022/02/12 10:44:50;;;;;;;27.90;25.90;;;4.90;73.30;;;;;;5093184;28;20202;-72
2022/02/12 10:47:18;;;;;;;28.17;26.08;;;5.10;72.10;;;;;;5093009;28;20217;-72
2022/02/12 10:49:48;;;;;;;27.83;25.67;;;5.10;71.80;;;;;;5092859;28;20675;-72
2022/02/12 10:52:15;;;;;;;28.05;26.05;;;5.20;71.00;;;;;;5092856;28;20305;-72
2022/02/12 10:54:44;;;;;;;29.02;26.85;;;5.10;71.00;;;;;;5092877;28;20326;-72
2022/02/12 10:57:11;;;;;;;27.15;25.27;;;5.40;70.30;;;;;;5092861;28;20297;-72
2022/02/12 10:59:42;;;;;;;29.98;27.73;;;5.60;69.30;;;;;;5092689;28;20224;-72
2022/02/12 11:02:10;;;;;;;28.63;25.98;;;5.80;68.80;;;;;;5092972;28;20226;-72
2022/02/12 11:04:40;;;;;;;27.55;25.65;;;5.90;68.70;;;;;;5092796;28;20202;-72
2022/02/12 11:07:13;;;;;;;28.65;26.55;;;6.00;68.10;;;;;;5092780;28;20202;-72
2022/02/12 11:09:40;;;;;;;27.27;25.27;;;6.00;67.80;;;;;;5091975;28;20190;-72
2022/02/12 11:12:08;;;;;;;27.88;25.50;;;6.00;67.40;;;;;;5092715;28;20309;-72
2022/02/12 11:14:36;;;;;;;28.13;25.95;;;6.00;67.30;;;;;;5092507;28;20568;-72
2022/02/12 11:17:06;;;;;;;28.70;26.05;;;6.20;67.00;;;;;;5092578;28;20206;-72
2022/02/12 11:19:34;;;;;;;28.52;26.48;;;6.20;66.50;;;;;;5092186;28;20244;-72
2022/02/12 11:22:02;;;;;;;28.30;26.10;;;6.20;66.50;;;;;;5092389;28;20239;-72
2022/02/12 11:24:38;;;;;;;29.67;27.17;;;6.30;66.00;;;;;;5092542;28;20221;-72
2022/02/12 11:27:16;;;;;;;28.77;26.52;;;6.30;65.70;;;;;;5092443;28;20293;-72
2022/02/12 11:29:45;;;;;;;27.38;25.33;;;6.50;65.00;;;;;;5092283;28;20280;-72
2022/02/12 11:32:14;;;;;;;26.80;25.00;;;6.10;65.00;;;;;;5092427;28;20313;-72
2022/02/12 11:34:44;;;;;;;27.38;25.15;;;6.40;64.70;;;;;;5092434;28;20208;-72
2022/02/12 11:37:16;;;;;;;29.63;27.20;;;6.60;63.90;;;;;;5092410;28;20211;-72
2022/02/12 11:40:11;;;;;;;28.75;26.75;;;6.70;64.00;;;;;;5092158;28;20226;-72
2022/02/12 11:42:43;;;;;;;27.10;25.27;;;6.90;63.20;;;;;;5092525;28;20202;-72
2022/02/12 11:45:29;;;;;;;26.50;24.73;;;7.00;62.80;;;;;;5092512;28;20234;-72
2022/02/12 11:48:20;;;;;;;28.25;26.13;;;6.80;62.10;;;;;;5092480;28;20221;-72
2022/02/12 11:50:52;;;;;;;28.17;26.27;;;6.80;62.90;;;;;;5092083;28;20254;-72
2022/02/12 11:53:40;;;;;;;27.52;25.52;;;6.90;62.70;;;;;;5092382;28;20232;-72
2022/02/12 11:56:11;;;;;;;27.27;25.02;;;7.10;62.00;;;;;;5092332;28;20652;-72
2022/02/12 11:58:58;;;;;;;27.73;25.77;;;7.20;61.50;;;;;;5092241;28;20210;-72
2022/02/12 12:01:51;;;;;;;26.30;24.23;;;7.40;61.10;;;;;;5091973;28;20219;-73
2022/02/12 12:04:21;;;;;;;26.35;24.75;;;7.40;60.60;;;;;;5092168;28;20632;-72
2022/02/12 12:07:13;;;;;;;27.48;25.50;;;7.50;60.50;;;;;;5092251;28;20207;-72
2022/02/12 12:10:08;;;;;;;28.08;25.85;;;7.60;60.20;;;;;;5091892;28;20234;-72
2022/02/12 12:12:36;;;;;;;26.45;24.42;;;7.70;60.30;;;;;;5092239;28;20568;-72
2022/02/12 12:15:21;;;;;;;26.55;24.75;;;7.80;60.20;;;;;;5092157;28;20199;-72
2022/02/12 12:18:00;;;;;;;27.20;25.33;;;7.80;60.30;;;;;;5092035;28;20676;-72
2022/02/12 12:20:38;;;;;;;27.65;25.65;;;7.90;60.60;;;;;;5091758;28;20310;-72
2022/02/12 12:23:08;;;;;;;26.08;24.40;;;8.00;60.60;;;;;;5095979;28;20191;-72
2022/02/12 12:25:52;;;;;;;27.92;25.50;;;8.10;60.20;;;;;;5095582;28;20657;-72
2022/02/12 12:28:31;;;;;;;25.75;24.10;;;8.20;60.00;;;;;;5095619;28;20680;-73
2022/02/12 12:30:58;;;;;;;27.00;24.85;;;8.30;58.20;;;;;;5095552;28;20225;-72
2022/02/12 12:33:27;;;;;;;26.02;24.23;;;8.30;57.80;;;;;;5095738;28;20226;-72
2022/02/12 12:35:55;;;;;;;26.17;24.38;;;8.40;57.10;;;;;;5095428;28;20196;-72
2022/02/12 12:38:35;;;;;;;25.85;24.15;;;8.50;56.90;;;;;;5095532;28;20209;-72
2022/02/12 12:41:20;;;;;;;26.80;25.30;;;8.60;56.20;;;;;;5095213;28;20233;-72
2022/02/12 12:43:48;;;;;;;24.83;23.20;;;8.70;56.10;;;;;;5095411;28;20657;-72
2022/02/12 12:46:15;;;;;;;24.48;22.88;;;8.70;55.40;;;;;;5095362;28;20282;-73
2022/02/12 12:48:42;;;;;;;25.05;23.55;;;8.70;55.70;;;;;;5095371;28;20198;-72
2022/02/12 12:51:16;;;;;;;24.67;23.13;;;8.70;55.40;;;;;;5095046;28;20619;-73